createdAt,value
2023-05-09T00:02:08.016Z,6.45
2023-05-09T00:05:11.279Z,6.73
2023-05-09T00:08:13.916Z,6.68
2023-05-09T00:11:16.334Z,6.61
2023-05-09T00:14:18.736Z,6.60
2023-05-09T00:17:22.859Z,6.56
2023-05-09T00:20:25.294Z,6.56
2023-05-09T00:23:27.764Z,6.70
2023-05-09T00:26:30.285Z,6.82
2023-05-09T00:29:32.741Z,6.90
2023-05-09T00:32:35.193Z,6.93
2023-05-09T00:35:37.614Z,6.78
2023-05-09T00:38:40.047Z,6.77
2023-05-09T00:41:42.581Z,6.77
2023-05-09T00:44:44.976Z,6.72
2023-05-09T00:47:47.586Z,6.64
2023-05-09T00:50:52.957Z,6.47
2023-05-09T00:53:55.480Z,6.41
2023-05-09T00:56:58.003Z,6.22
2023-05-09T01:00:01.503Z,6.08
2023-05-09T01:03:05.009Z,6.19
2023-05-09T01:06:39.738Z,6.39
2023-05-09T01:09:51.679Z,6.49
2023-05-09T01:13:20.377Z,6.42
2023-05-09T01:16:31.236Z,6.43
2023-05-09T01:20:11.179Z,6.47
2023-05-09T01:23:34.609Z,6.54
2023-05-09T01:26:51.908Z,6.65
2023-05-09T01:29:58.276Z,6.70
2023-05-09T01:33:05.531Z,6.77
2023-05-09T01:36:15.269Z,6.76
2023-05-09T01:39:19.924Z,6.71
2023-05-09T01:42:24.699Z,6.73
2023-05-09T01:45:28.228Z,6.70
2023-05-09T01:48:31.884Z,6.82
2023-05-09T01:51:36.667Z,7.01
2023-05-09T01:54:41.507Z,7.24
2023-05-09T01:57:45.459Z,7.08
2023-05-09T02:00:49.060Z,7.29
2023-05-09T02:03:55.289Z,7.38
2023-05-09T02:06:59.266Z,7.51
2023-05-09T02:10:02.654Z,7.77
2023-05-09T02:13:05.258Z,7.74
2023-05-09T02:16:08.152Z,7.95
2023-05-09T02:19:11.804Z,7.78
2023-05-09T02:22:15.683Z,8.08
2023-05-09T02:25:18.681Z,8.07
2023-05-09T02:28:22.923Z,8.11
2023-05-09T02:31:27.494Z,7.98
2023-05-09T02:34:30.058Z,8.03
2023-05-09T02:37:33.675Z,8.06
2023-05-09T02:40:37.217Z,8.24
2023-05-09T02:43:39.606Z,8.24
2023-05-09T02:46:42.411Z,8.25
2023-05-09T02:49:44.954Z,8.24
2023-05-09T02:52:47.982Z,8.35
2023-05-09T02:55:50.572Z,8.20
2023-05-09T02:58:52.995Z,8.45
2023-05-09T03:01:55.587Z,8.28
2023-05-09T03:04:58.077Z,8.39
2023-05-09T03:08:00.512Z,8.45
2023-05-09T03:11:03.006Z,8.55
2023-05-09T03:14:08.356Z,8.28
2023-05-09T03:17:11.000Z,8.46
2023-05-09T03:20:14.402Z,8.43
2023-05-09T03:23:17.306Z,8.40
2023-05-09T03:26:19.844Z,8.65
2023-05-09T03:29:22.345Z,8.58
2023-05-09T03:32:24.848Z,8.76
2023-05-09T03:35:27.434Z,8.66
2023-05-09T03:38:30.919Z,8.38
2023-05-09T03:41:36.041Z,8.76
2023-05-09T03:44:38.743Z,9.08
2023-05-09T03:47:41.320Z,9.01
2023-05-09T03:50:43.905Z,8.89
2023-05-09T03:53:48.457Z,8.99
2023-05-09T03:56:51.788Z,8.94
2023-05-09T03:59:54.603Z,8.96
2023-05-09T04:02:57.356Z,9.02
2023-05-09T04:06:12.578Z,9.16
2023-05-09T04:09:19.127Z,9.08
2023-05-09T04:12:23.122Z,9.00
2023-05-09T04:15:26.378Z,9.24
2023-05-09T04:18:29.285Z,9.16
2023-05-09T04:21:31.959Z,9.30
2023-05-09T04:24:36.599Z,9.37
2023-05-09T04:27:39.109Z,9.41
2023-05-09T04:30:41.891Z,9.68
2023-05-09T04:33:45.713Z,9.52
2023-05-09T04:36:48.206Z,9.84
2023-05-09T04:39:50.611Z,9.88
2023-05-09T04:42:59.743Z,9.92
2023-05-09T04:46:04.966Z,9.93
2023-05-09T04:49:09.097Z,10.13
2023-05-09T04:52:11.520Z,10.26
2023-05-09T04:55:14.081Z,10.28
2023-05-09T04:58:20.371Z,10.39
2023-05-09T05:01:22.876Z,10.59
2023-05-09T05:04:26.375Z,10.71
2023-05-09T05:07:28.853Z,10.98
2023-05-09T05:10:31.583Z,10.98
2023-05-09T05:13:44.513Z,11.09
2023-05-09T05:16:46.956Z,11.37
2023-05-09T05:19:49.838Z,11.47
2023-05-09T05:22:54.580Z,11.75
2023-05-09T05:25:57.087Z,11.66
2023-05-09T05:29:00.931Z,11.81
2023-05-09T05:32:03.630Z,11.77
2023-05-09T05:35:06.708Z,11.83
2023-05-09T05:38:12.357Z,11.84
2023-05-09T05:41:15.752Z,11.94
2023-05-09T05:44:18.918Z,12.13
2023-05-09T05:47:21.635Z,12.40
2023-05-09T05:50:25.166Z,12.74
2023-05-09T05:53:30.360Z,12.92
2023-05-09T05:56:34.480Z,13.12
2023-05-09T05:59:37.446Z,13.55
2023-05-09T06:02:46.198Z,15.29
2023-05-09T06:05:56.554Z,15.48
2023-05-09T06:08:59.141Z,14.39
2023-05-09T06:12:01.676Z,15.08
2023-05-09T06:15:05.930Z,14.64
2023-05-09T06:18:11.675Z,14.60
2023-05-09T06:21:14.172Z,14.53
2023-05-09T06:24:31.719Z,14.94
2023-05-09T06:27:38.061Z,15.30
2023-05-09T06:30:40.520Z,16.31
2023-05-09T06:33:43.010Z,18.18
2023-05-09T06:36:45.367Z,18.90
2023-05-09T06:39:47.770Z,19.54
2023-05-09T06:42:50.238Z,20.74
2023-05-09T06:45:52.864Z,20.45
2023-05-09T06:48:55.384Z,21.12
2023-05-09T06:51:57.864Z,20.57
2023-05-09T06:55:00.235Z,21.39
2023-05-09T06:58:03.332Z,21.54
2023-05-09T07:01:05.741Z,21.58
2023-05-09T07:04:08.306Z,21.24
2023-05-09T07:07:10.879Z,21.12
2023-05-09T07:10:13.432Z,22.09
2023-05-09T07:13:16.123Z,22.53
2023-05-09T07:16:18.644Z,22.84
2023-05-09T07:19:21.089Z,22.78
2023-05-09T07:22:23.818Z,23.07
2023-05-09T07:25:26.250Z,22.31
2023-05-09T07:28:28.762Z,22.80
2023-05-09T07:31:31.368Z,23.48
2023-05-09T07:34:33.833Z,22.84
2023-05-09T07:37:36.765Z,22.76
2023-05-09T07:40:39.279Z,23.47
2023-05-09T07:43:41.796Z,23.22
2023-05-09T07:46:44.248Z,23.67
2023-05-09T07:49:48.039Z,24.10
2023-05-09T07:52:51.322Z,23.90
2023-05-09T07:55:54.040Z,23.99
2023-05-09T07:58:56.496Z,23.18
2023-05-09T08:01:58.973Z,23.18
2023-05-09T08:05:01.666Z,23.72
2023-05-09T08:08:04.467Z,23.29
2023-05-09T08:11:06.925Z,23.70
2023-05-09T08:14:09.352Z,23.93
2023-05-09T08:17:11.828Z,23.96
2023-05-09T08:20:14.376Z,24.30
2023-05-09T08:23:16.777Z,25.09
2023-05-09T08:26:19.421Z,23.63
2023-05-09T08:29:21.877Z,23.87
2023-05-09T08:32:24.388Z,23.84
2023-05-09T08:35:26.800Z,23.79
2023-05-09T08:38:29.174Z,23.16
2023-05-09T08:41:35.988Z,24.25
2023-05-09T08:44:38.507Z,23.89
2023-05-09T08:47:42.427Z,24.77
2023-05-09T08:50:45.443Z,24.39
2023-05-09T08:53:48.002Z,25.06
2023-05-09T08:56:51.301Z,24.50
2023-05-09T08:59:55.257Z,24.69
2023-05-09T09:03:00.760Z,24.80
2023-05-09T09:06:03.514Z,24.78
2023-05-09T09:09:08.614Z,23.56
2023-05-09T09:12:12.210Z,24.93
2023-05-09T09:15:19.729Z,23.95
2023-05-09T09:18:29.873Z,24.95
2023-05-09T09:21:33.613Z,24.02
2023-05-09T09:24:36.218Z,24.58
2023-05-09T09:27:38.663Z,24.44
2023-05-09T09:30:45.074Z,24.78
2023-05-09T09:33:48.502Z,25.55
2023-05-09T09:36:51.073Z,25.60
2023-05-09T09:39:55.563Z,25.29
2023-05-09T09:42:58.230Z,25.27
2023-05-09T09:46:04.576Z,24.70
2023-05-09T09:49:09.650Z,25.79
2023-05-09T09:52:12.101Z,24.59
2023-05-09T09:55:14.536Z,24.71
2023-05-09T09:58:18.325Z,25.01
2023-05-09T10:01:20.859Z,24.44
2023-05-09T10:04:24.332Z,23.17
2023-05-09T10:07:26.734Z,24.51
2023-05-09T10:10:31.820Z,24.21
2023-05-09T10:13:38.466Z,23.91
2023-05-09T10:16:44.289Z,24.27
2023-05-09T10:19:48.085Z,24.41
2023-05-09T10:22:54.045Z,23.74
2023-05-09T10:26:15.668Z,25.49
2023-05-09T10:29:23.251Z,24.90
2023-05-09T10:32:38.066Z,24.99
2023-05-09T10:35:45.872Z,25.18
2023-05-09T10:38:49.153Z,26.00
2023-05-09T10:41:51.765Z,23.72
2023-05-09T10:44:54.204Z,23.07
2023-05-09T10:47:58.061Z,24.45
2023-05-09T10:51:02.481Z,25.09
2023-05-09T10:54:15.544Z,24.93
2023-05-09T10:57:19.748Z,25.68
2023-05-09T11:00:25.467Z,23.73
2023-05-09T11:03:49.045Z,23.60
2023-05-09T11:06:54.013Z,25.46
2023-05-09T11:10:14.869Z,25.44
2023-05-09T11:13:24.803Z,25.24
2023-05-09T11:16:27.325Z,25.57
2023-05-09T11:19:47.700Z,25.81
2023-05-09T11:22:53.295Z,23.51
2023-05-09T11:26:07.807Z,24.66
2023-05-09T11:29:10.278Z,25.85
2023-05-09T11:32:16.302Z,26.40
2023-05-09T11:35:21.334Z,26.20
2023-05-09T11:38:25.628Z,27.15
2023-05-09T11:41:29.296Z,25.46
2023-05-09T11:44:33.501Z,26.91
2023-05-09T11:47:37.442Z,26.40
2023-05-09T11:50:41.689Z,26.18
2023-05-09T11:53:46.926Z,26.63
2023-05-09T11:56:49.571Z,25.70
2023-05-09T11:59:52.834Z,26.17
2023-05-09T12:02:55.719Z,25.64
2023-05-09T12:05:58.600Z,25.87
2023-05-09T12:09:01.034Z,26.28
2023-05-09T12:12:12.317Z,27.11
2023-05-09T12:15:15.599Z,26.16
2023-05-09T12:18:18.333Z,25.82
2023-05-09T12:21:21.826Z,26.18
2023-05-09T12:24:28.748Z,25.95
2023-05-09T12:27:33.128Z,24.43
2023-05-09T12:30:36.074Z,24.23
2023-05-09T12:33:39.590Z,22.86
2023-05-09T12:36:53.488Z,21.81
2023-05-09T12:40:13.127Z,23.01
2023-05-09T12:43:15.709Z,23.41
2023-05-09T12:46:20.079Z,23.84
2023-05-09T12:49:23.236Z,25.39
2023-05-09T12:52:26.152Z,26.31
2023-05-09T12:55:28.728Z,23.68
2023-05-09T12:58:32.738Z,21.88
2023-05-09T13:01:36.002Z,20.87
2023-05-09T13:04:38.487Z,20.80
2023-05-09T13:07:46.162Z,20.34
2023-05-09T13:10:48.645Z,20.07
2023-05-09T13:13:51.034Z,19.99
2023-05-09T13:16:54.003Z,20.33
2023-05-09T13:19:56.488Z,22.19
2023-05-09T13:22:59.201Z,23.26
2023-05-09T13:26:01.609Z,23.76
2023-05-09T13:29:04.033Z,22.21
2023-05-09T13:32:07.179Z,22.29
2023-05-09T13:35:09.768Z,23.49
2023-05-09T13:38:12.201Z,22.95
2023-05-09T13:41:20.204Z,21.60
2023-05-09T13:44:23.755Z,20.12
2023-05-09T13:47:26.541Z,19.93
2023-05-09T13:50:29.085Z,20.51
2023-05-09T13:53:31.490Z,20.13
2023-05-09T13:56:34.090Z,19.92
2023-05-09T13:59:36.700Z,19.45
2023-05-09T14:02:39.226Z,19.84
2023-05-09T14:05:42.401Z,19.88
2023-05-09T14:08:44.830Z,19.79
2023-05-09T14:11:47.621Z,20.00
2023-05-09T14:14:50.045Z,20.79
2023-05-09T14:17:52.417Z,21.23
2023-05-09T14:20:54.902Z,21.37
2023-05-09T14:23:57.497Z,21.34
2023-05-09T14:26:59.930Z,20.92
2023-05-09T14:30:04.433Z,20.86
2023-05-09T14:33:07.447Z,21.26
2023-05-09T14:36:09.877Z,21.25
2023-05-09T14:39:12.626Z,21.23
2023-05-09T14:42:16.632Z,21.34
2023-05-09T14:45:19.097Z,21.37
2023-05-09T14:48:22.007Z,20.57
2023-05-09T14:51:24.408Z,20.12
2023-05-09T14:54:27.165Z,19.49
2023-05-09T14:57:29.549Z,19.30
2023-05-09T15:00:32.929Z,19.48
2023-05-09T15:03:35.343Z,18.76
2023-05-09T15:06:38.073Z,18.48
2023-05-09T15:09:40.451Z,18.43
2023-05-09T15:12:43.596Z,18.84
2023-05-09T15:15:46.125Z,19.09
2023-05-09T15:18:48.525Z,18.94
2023-05-09T15:21:51.631Z,18.79
2023-05-09T15:24:54.016Z,18.65
2023-05-09T15:27:56.762Z,18.65
2023-05-09T15:31:00.110Z,18.27
2023-05-09T15:34:02.710Z,18.30
2023-05-09T15:37:06.029Z,17.69
2023-05-09T15:40:09.295Z,17.80
2023-05-09T15:43:12.970Z,17.76
2023-05-09T15:46:15.383Z,17.82
2023-05-09T15:49:17.761Z,17.62
2023-05-09T15:52:20.217Z,17.63
2023-05-09T15:55:23.176Z,17.45
2023-05-09T15:58:25.752Z,17.45
2023-05-09T16:01:28.445Z,17.37
2023-05-09T16:04:30.839Z,17.21
2023-05-09T16:07:35.336Z,17.22
2023-05-09T16:10:38.292Z,16.82
2023-05-09T16:13:40.643Z,17.01
2023-05-09T16:16:43.194Z,17.19
2023-05-09T16:19:45.644Z,17.13
2023-05-09T16:22:48.082Z,17.06
2023-05-09T16:25:50.544Z,17.08
2023-05-09T16:28:52.932Z,17.03
2023-05-09T16:31:55.445Z,16.88
2023-05-09T16:34:57.962Z,16.84
2023-05-09T16:38:00.364Z,16.45
2023-05-09T16:41:03.245Z,16.63
2023-05-09T16:44:05.893Z,16.27
2023-05-09T16:47:08.268Z,16.28
2023-05-09T16:50:11.035Z,16.06
2023-05-09T16:53:14.062Z,15.92
2023-05-09T16:56:16.450Z,15.80
2023-05-09T16:59:20.126Z,15.68
2023-05-09T17:02:22.689Z,15.70
2023-05-09T17:05:25.260Z,15.55
2023-05-09T17:08:27.601Z,15.29
2023-05-09T17:11:30.349Z,15.22
2023-05-09T17:14:32.721Z,15.21
2023-05-09T17:17:35.891Z,14.86
2023-05-09T17:20:38.313Z,14.87
2023-05-09T17:23:40.911Z,14.60
2023-05-09T17:26:43.526Z,14.59
2023-05-09T17:29:46.050Z,14.39
2023-05-09T17:32:48.606Z,14.24
2023-05-09T17:35:51.260Z,14.32
2023-05-09T17:38:53.745Z,14.08
2023-05-09T17:41:56.168Z,14.01
2023-05-09T17:44:58.632Z,13.55
2023-05-09T17:48:02.197Z,13.75
2023-05-09T17:51:04.613Z,13.76
2023-05-09T17:54:07.031Z,13.39
2023-05-09T17:57:09.519Z,13.21
2023-05-09T18:00:12.955Z,13.07
2023-05-09T18:03:17.986Z,13.01
2023-05-09T18:06:20.614Z,12.91
2023-05-09T18:09:23.474Z,12.41
2023-05-09T18:12:28.914Z,12.59
2023-05-09T18:15:32.031Z,12.33
2023-05-09T18:18:35.613Z,12.01
2023-05-09T18:21:38.969Z,12.02
2023-05-09T18:24:41.378Z,11.98
2023-05-09T18:27:43.872Z,11.97
2023-05-09T18:30:46.311Z,11.81
2023-05-09T18:33:49.212Z,11.80
2023-05-09T18:36:52.622Z,11.68
2023-05-09T18:39:55.154Z,11.44
2023-05-09T18:42:57.546Z,11.12
2023-05-09T18:46:00.038Z,10.94
2023-05-09T18:49:03.996Z,10.87
2023-05-09T18:52:06.727Z,10.85
2023-05-09T18:55:10.366Z,10.93
2023-05-09T18:58:13.626Z,10.82
2023-05-09T19:01:16.798Z,10.88
2023-05-09T19:04:19.875Z,10.77
2023-05-09T19:07:22.726Z,10.98
2023-05-09T19:10:25.626Z,10.82
2023-05-09T19:13:28.280Z,10.76
2023-05-09T19:16:31.073Z,10.83
2023-05-09T19:19:33.572Z,10.78
2023-05-09T19:22:36.534Z,10.76
2023-05-09T19:25:39.153Z,10.56
2023-05-09T19:28:42.654Z,10.54
2023-05-09T19:31:45.411Z,10.71
2023-05-09T19:34:48.339Z,10.72
2023-05-09T19:37:51.311Z,10.60
2023-05-09T19:40:54.453Z,10.64
2023-05-09T19:43:56.964Z,10.47
2023-05-09T19:47:01.018Z,10.50
2023-05-09T19:50:03.811Z,10.39
2023-05-09T19:53:06.511Z,10.54
2023-05-09T19:56:09.650Z,10.56
2023-05-09T19:59:12.415Z,10.40
2023-05-09T20:02:14.950Z,10.57
2023-05-09T20:05:17.368Z,10.54
2023-05-09T20:08:19.808Z,10.54
2023-05-09T20:11:22.764Z,10.55
2023-05-09T20:14:26.126Z,10.34
2023-05-09T20:17:28.570Z,10.51
2023-05-09T20:20:33.625Z,10.32
2023-05-09T20:23:36.795Z,10.32
2023-05-09T20:26:40.376Z,10.29
2023-05-09T20:29:43.029Z,10.44
2023-05-09T20:32:45.615Z,10.40
2023-05-09T20:35:49.246Z,10.39
2023-05-09T20:38:51.940Z,10.36
2023-05-09T20:41:55.867Z,10.20
2023-05-09T20:44:58.646Z,10.25
2023-05-09T20:48:02.067Z,10.12
2023-05-09T20:51:04.532Z,10.18
2023-05-09T20:54:07.318Z,10.23
2023-05-09T20:57:09.750Z,10.26
2023-05-09T21:00:12.852Z,10.29
2023-05-09T21:03:15.614Z,10.30
2023-05-09T21:06:18.405Z,10.16
2023-05-09T21:09:20.847Z,10.33
2023-05-09T21:12:23.289Z,10.42
2023-05-09T21:15:25.729Z,10.53
2023-05-09T21:18:28.145Z,10.56
2023-05-09T21:21:34.308Z,10.61
2023-05-09T21:24:36.768Z,10.67
2023-05-09T21:27:39.197Z,10.69
2023-05-09T21:30:41.720Z,10.51
2023-05-09T21:33:44.134Z,10.66
2023-05-09T21:36:46.594Z,10.51
2023-05-09T21:39:49.028Z,10.70
2023-05-09T21:42:51.424Z,10.66
2023-05-09T21:45:53.809Z,10.59
2023-05-09T21:48:56.202Z,10.39
2023-05-09T21:51:58.694Z,10.41
2023-05-09T21:55:01.224Z,10.55
2023-05-09T21:58:03.662Z,10.56
2023-05-09T22:01:06.074Z,10.60
2023-05-09T22:04:08.619Z,10.42
2023-05-09T22:07:11.406Z,10.39
2023-05-09T22:10:14.088Z,10.32
2023-05-09T22:13:16.721Z,10.40
2023-05-09T22:16:19.265Z,10.19
2023-05-09T22:19:21.699Z,10.29
2023-05-09T22:22:24.192Z,10.24
2023-05-09T22:25:26.558Z,10.24
2023-05-09T22:28:28.921Z,10.03
2023-05-09T22:31:31.509Z,9.97
2023-05-09T22:34:34.265Z,9.84
2023-05-09T22:37:36.789Z,10.00
2023-05-09T22:40:39.302Z,9.71
2023-05-09T22:43:41.677Z,9.78
2023-05-09T22:46:44.095Z,9.72
2023-05-09T22:49:46.800Z,9.68
2023-05-09T22:52:49.170Z,9.59
2023-05-09T22:55:52.791Z,9.61
2023-05-09T22:58:55.173Z,9.37
2023-05-09T23:01:58.835Z,9.49
2023-05-09T23:05:01.351Z,9.47
2023-05-09T23:08:03.807Z,9.38
2023-05-09T23:11:06.253Z,9.44
2023-05-09T23:14:08.795Z,9.22
2023-05-09T23:17:11.259Z,9.17
2023-05-09T23:20:14.058Z,9.29
2023-05-09T23:23:16.925Z,9.27
2023-05-09T23:26:19.338Z,9.19
2023-05-09T23:29:21.904Z,9.03
2023-05-09T23:32:24.299Z,9.17
2023-05-09T23:35:26.832Z,9.03
2023-05-09T23:38:29.226Z,8.98
2023-05-09T23:41:31.635Z,9.10
2023-05-09T23:44:34.458Z,8.99
2023-05-09T23:47:36.873Z,9.11
2023-05-09T23:50:39.301Z,8.89
2023-05-09T23:53:41.622Z,9.08
2023-05-09T23:56:43.977Z,9.03
2023-05-09T23:59:46.689Z,8.97
